sensor_id;sensor_type;location;lat;lon;timestamp;P1;durP1;ratioP1;P2;durP2;ratioP2
21890;SDS011;11110;52.386;16.940;2023-12-14T00:01:29;55.33;;;22.70;;
21890;SDS011;11110;52.386;16.940;2023-12-14T00:03:58;54.00;;;23.03;;
21890;SDS011;11110;52.386;16.940;2023-12-14T00:06:27;54.60;;;22.87;;
21890;SDS011;11110;52.386;16.940;2023-12-14T00:08:55;56.00;;;22.30;;
21890;SDS011;11110;52.386;16.940;2023-12-14T00:11:24;54.60;;;21.77;;
21890;SDS011;11110;52.386;16.940;2023-12-14T00:13:52;54.63;;;21.57;;
21890;SDS011;11110;52.386;16.940;2023-12-14T00:16:21;62.20;;;23.00;;
21890;SDS011;11110;52.386;16.940;2023-12-14T00:18:50;46.80;;;20.93;;
21890;SDS011;11110;52.386;16.940;2023-12-14T00:21:20;61.20;;;22.83;;
21890;SDS011;11110;52.386;16.940;2023-12-14T00:23:48;57.90;;;22.77;;
21890;SDS011;11110;52.386;16.940;2023-12-14T00:26:17;65.17;;;23.87;;
21890;SDS011;11110;52.386;16.940;2023-12-14T00:28:46;59.03;;;23.40;;
21890;SDS011;11110;52.386;16.940;2023-12-14T00:31:15;65.97;;;23.47;;
21890;SDS011;11110;52.386;16.940;2023-12-14T00:33:44;61.50;;;22.70;;
21890;SDS011;11110;52.386;16.940;2023-12-14T00:36:17;66.77;;;23.53;;
21890;SDS011;11110;52.386;16.940;2023-12-14T00:38:47;64.73;;;23.70;;
21890;SDS011;11110;52.386;16.940;2023-12-14T00:41:16;55.57;;;22.33;;
21890;SDS011;11110;52.386;16.940;2023-12-14T00:43:44;58.67;;;22.73;;
21890;SDS011;11110;52.386;16.940;2023-12-14T00:46:13;59.40;;;23.00;;
21890;SDS011;11110;52.386;16.940;2023-12-14T00:48:42;56.80;;;21.63;;
21890;SDS011;11110;52.386;16.940;2023-12-14T00:51:10;60.37;;;23.43;;
21890;SDS011;11110;52.386;16.940;2023-12-14T00:53:39;57.83;;;20.83;;
21890;SDS011;11110;52.386;16.940;2023-12-14T00:56:09;53.97;;;21.23;;
21890;SDS011;11110;52.386;16.940;2023-12-14T00:58:38;49.87;;;20.30;;
21890;SDS011;11110;52.386;16.940;2023-12-14T01:01:06;46.53;;;19.47;;
21890;SDS011;11110;52.386;16.940;2023-12-14T01:03:35;49.13;;;19.90;;
21890;SDS011;11110;52.386;16.940;2023-12-14T01:06:04;48.53;;;20.60;;
21890;SDS011;11110;52.386;16.940;2023-12-14T01:08:33;51.70;;;20.83;;
21890;SDS011;11110;52.386;16.940;2023-12-14T01:11:02;50.43;;;21.10;;
21890;SDS011;11110;52.386;16.940;2023-12-14T01:13:32;56.27;;;22.03;;
21890;SDS011;11110;52.386;16.940;2023-12-14T01:16:01;52.00;;;21.27;;
21890;SDS011;11110;52.386;16.940;2023-12-14T01:18:29;55.73;;;21.10;;
21890;SDS011;11110;52.386;16.940;2023-12-14T01:20:58;59.50;;;22.37;;
21890;SDS011;11110;52.386;16.940;2023-12-14T01:23:27;54.53;;;21.60;;
21890;SDS011;11110;52.386;16.940;2023-12-14T01:25:56;50.63;;;21.03;;
21890;SDS011;11110;52.386;16.940;2023-12-14T01:28:24;52.90;;;20.43;;
21890;SDS011;11110;52.386;16.940;2023-12-14T01:30:55;58.77;;;21.80;;
21890;SDS011;11110;52.386;16.940;2023-12-14T01:33:24;53.43;;;22.03;;
21890;SDS011;11110;52.386;16.940;2023-12-14T01:35:53;56.03;;;22.33;;
21890;SDS011;11110;52.386;16.940;2023-12-14T01:38:21;49.10;;;20.63;;
21890;SDS011;11110;52.386;16.940;2023-12-14T01:40:50;52.23;;;20.10;;
21890;SDS011;11110;52.386;16.940;2023-12-14T01:43:18;47.77;;;19.93;;
21890;SDS011;11110;52.386;16.940;2023-12-14T01:45:47;46.53;;;19.30;;
21890;SDS011;11110;52.386;16.940;2023-12-14T01:48:17;46.60;;;20.17;;
21890;SDS011;11110;52.386;16.940;2023-12-14T01:50:45;51.17;;;20.07;;
21890;SDS011;11110;52.386;16.940;2023-12-14T01:53:14;47.57;;;19.23;;
21890;SDS011;11110;52.386;16.940;2023-12-14T01:55:43;42.77;;;18.20;;
21890;SDS011;11110;52.386;16.940;2023-12-14T01:58:11;38.50;;;16.70;;
21890;SDS011;11110;52.386;16.940;2023-12-14T02:00:42;44.27;;;18.63;;
21890;SDS011;11110;52.386;16.940;2023-12-14T02:03:18;41.73;;;17.73;;
21890;SDS011;11110;52.386;16.940;2023-12-14T02:05:47;42.00;;;17.10;;
21890;SDS011;11110;52.386;16.940;2023-12-14T02:08:16;36.47;;;16.50;;
21890;SDS011;11110;52.386;16.940;2023-12-14T02:10:44;36.90;;;16.60;;
21890;SDS011;11110;52.386;16.940;2023-12-14T02:13:13;33.37;;;15.17;;
21890;SDS011;11110;52.386;16.940;2023-12-14T02:15:41;34.57;;;14.93;;
21890;SDS011;11110;52.386;16.940;2023-12-14T02:18:10;32.90;;;14.40;;
21890;SDS011;11110;52.386;16.940;2023-12-14T02:20:40;26.83;;;13.67;;
21890;SDS011;11110;52.386;16.940;2023-12-14T02:23:10;30.40;;;14.77;;
21890;SDS011;11110;52.386;16.940;2023-12-14T02:25:39;28.87;;;13.77;;
21890;SDS011;11110;52.386;16.940;2023-12-14T02:28:07;29.53;;;13.40;;
21890;SDS011;11110;52.386;16.940;2023-12-14T02:30:39;31.13;;;13.70;;
21890;SDS011;11110;52.386;16.940;2023-12-14T02:33:08;31.50;;;14.53;;
21890;SDS011;11110;52.386;16.940;2023-12-14T02:35:36;26.90;;;12.90;;
21890;SDS011;11110;52.386;16.940;2023-12-14T02:38:05;28.30;;;13.13;;
21890;SDS011;11110;52.386;16.940;2023-12-14T02:40:35;30.17;;;13.83;;
21890;SDS011;11110;52.386;16.940;2023-12-14T02:43:03;26.80;;;12.00;;
21890;SDS011;11110;52.386;16.940;2023-12-14T02:45:32;27.90;;;12.07;;
21890;SDS011;11110;52.386;16.940;2023-12-14T02:48:01;29.07;;;13.00;;
21890;SDS011;11110;52.386;16.940;2023-12-14T02:50:29;27.47;;;12.23;;
21890;SDS011;11110;52.386;16.940;2023-12-14T02:52:58;24.50;;;11.83;;
21890;SDS011;11110;52.386;16.940;2023-12-14T02:55:27;28.07;;;12.93;;
21890;SDS011;11110;52.386;16.940;2023-12-14T02:57:57;25.13;;;11.63;;
21890;SDS011;11110;52.386;16.940;2023-12-14T03:00:25;22.37;;;10.67;;
21890;SDS011;11110;52.386;16.940;2023-12-14T03:02:54;28.73;;;11.70;;
21890;SDS011;11110;52.386;16.940;2023-12-14T03:05:23;25.97;;;11.20;;
21890;SDS011;11110;52.386;16.940;2023-12-14T03:07:51;23.43;;;10.70;;
21890;SDS011;11110;52.386;16.940;2023-12-14T03:10:20;22.63;;;10.33;;
21890;SDS011;11110;52.386;16.940;2023-12-14T03:12:49;24.37;;;11.47;;
21890;SDS011;11110;52.386;16.940;2023-12-14T03:15:20;24.40;;;11.23;;
21890;SDS011;11110;52.386;16.940;2023-12-14T03:17:49;22.70;;;10.33;;
21890;SDS011;11110;52.386;16.940;2023-12-14T03:20:17;24.40;;;11.23;;
21890;SDS011;11110;52.386;16.940;2023-12-14T03:22:46;24.97;;;11.03;;
21890;SDS011;11110;52.386;16.940;2023-12-14T03:25:15;21.87;;;10.47;;
21890;SDS011;11110;52.386;16.940;2023-12-14T03:27:46;27.73;;;11.40;;
21890;SDS011;11110;52.386;16.940;2023-12-14T03:30:14;26.87;;;12.27;;
21890;SDS011;11110;52.386;16.940;2023-12-14T03:32:44;25.20;;;11.40;;
21890;SDS011;11110;52.386;16.940;2023-12-14T03:35:13;27.13;;;11.07;;
21890;SDS011;11110;52.386;16.940;2023-12-14T03:37:42;24.90;;;11.63;;
21890;SDS011;11110;52.386;16.940;2023-12-14T03:40:10;24.97;;;11.77;;
21890;SDS011;11110;52.386;16.940;2023-12-14T03:42:39;21.43;;;10.33;;
21890;SDS011;11110;52.386;16.940;2023-12-14T03:45:08;24.20;;;11.03;;
21890;SDS011;11110;52.386;16.940;2023-12-14T03:47:37;22.87;;;10.43;;
21890;SDS011;11110;52.386;16.940;2023-12-14T03:50:10;23.60;;;10.37;;
21890;SDS011;11110;52.386;16.940;2023-12-14T03:52:39;27.33;;;11.93;;
21890;SDS011;11110;52.386;16.940;2023-12-14T03:55:08;22.90;;;10.63;;
21890;SDS011;11110;52.386;16.940;2023-12-14T03:57:37;20.60;;;9.30;;
21890;SDS011;11110;52.386;16.940;2023-12-14T04:00:07;24.00;;;10.23;;
21890;SDS011;11110;52.386;16.940;2023-12-14T04:02:38;24.73;;;11.23;;
21890;SDS011;11110;52.386;16.940;2023-12-14T04:05:09;26.63;;;11.03;;
21890;SDS011;11110;52.386;16.940;2023-12-14T04:07:38;22.90;;;10.70;;
21890;SDS011;11110;52.386;16.940;2023-12-14T04:10:08;23.20;;;10.83;;
21890;SDS011;11110;52.386;16.940;2023-12-14T04:12:38;18.77;;;9.73;;
21890;SDS011;11110;52.386;16.940;2023-12-14T04:15:07;26.40;;;11.00;;
21890;SDS011;11110;52.386;16.940;2023-12-14T04:17:37;23.70;;;10.73;;
21890;SDS011;11110;52.386;16.940;2023-12-14T04:20:06;22.97;;;10.53;;
21890;SDS011;11110;52.386;16.940;2023-12-14T04:22:37;25.03;;;11.43;;
21890;SDS011;11110;52.386;16.940;2023-12-14T04:25:06;24.57;;;10.40;;
21890;SDS011;11110;52.386;16.940;2023-12-14T04:27:35;23.70;;;10.83;;
21890;SDS011;11110;52.386;16.940;2023-12-14T04:30:04;23.73;;;10.57;;
21890;SDS011;11110;52.386;16.940;2023-12-14T04:32:37;22.93;;;11.00;;
21890;SDS011;11110;52.386;16.940;2023-12-14T04:35:06;23.37;;;11.23;;
21890;SDS011;11110;52.386;16.940;2023-12-14T04:37:37;24.60;;;10.63;;
21890;SDS011;11110;52.386;16.940;2023-12-14T04:40:06;23.97;;;11.53;;
21890;SDS011;11110;52.386;16.940;2023-12-14T04:42:35;21.07;;;10.17;;
21890;SDS011;11110;52.386;16.940;2023-12-14T04:45:04;24.50;;;10.47;;
21890;SDS011;11110;52.386;16.940;2023-12-14T04:47:35;22.90;;;10.33;;
21890;SDS011;11110;52.386;16.940;2023-12-14T04:50:04;26.23;;;10.80;;
21890;SDS011;11110;52.386;16.940;2023-12-14T04:52:35;23.90;;;11.00;;
21890;SDS011;11110;52.386;16.940;2023-12-14T04:55:05;22.70;;;10.63;;
21890;SDS011;11110;52.386;16.940;2023-12-14T04:57:35;24.90;;;10.27;;
21890;SDS011;11110;52.386;16.940;2023-12-14T05:00:04;24.93;;;11.47;;
21890;SDS011;11110;52.386;16.940;2023-12-14T05:02:34;23.87;;;11.53;;
21890;SDS011;11110;52.386;16.940;2023-12-14T05:05:03;22.10;;;10.10;;
21890;SDS011;11110;52.386;16.940;2023-12-14T05:07:32;24.57;;;10.97;;
21890;SDS011;11110;52.386;16.940;2023-12-14T05:10:03;22.07;;;10.20;;
21890;SDS011;11110;52.386;16.940;2023-12-14T05:12:32;26.07;;;10.63;;
21890;SDS011;11110;52.386;16.940;2023-12-14T05:15:01;30.63;;;12.83;;
21890;SDS011;11110;52.386;16.940;2023-12-14T05:17:29;22.13;;;10.40;;
21890;SDS011;11110;52.386;16.940;2023-12-14T05:19:58;23.47;;;11.27;;
21890;SDS011;11110;52.386;16.940;2023-12-14T05:22:27;22.50;;;10.97;;
21890;SDS011;11110;52.386;16.940;2023-12-14T05:24:57;23.47;;;11.20;;
21890;SDS011;11110;52.386;16.940;2023-12-14T05:27:26;22.40;;;11.27;;
21890;SDS011;11110;52.386;16.940;2023-12-14T05:29:54;25.83;;;11.83;;
21890;SDS011;11110;52.386;16.940;2023-12-14T05:32:23;23.07;;;11.40;;
21890;SDS011;11110;52.386;16.940;2023-12-14T05:34:52;27.47;;;11.63;;
21890;SDS011;11110;52.386;16.940;2023-12-14T05:37:20;26.77;;;12.23;;
21890;SDS011;11110;52.386;16.940;2023-12-14T05:39:49;22.17;;;11.60;;
21890;SDS011;11110;52.386;16.940;2023-12-14T05:42:19;29.50;;;13.23;;
21890;SDS011;11110;52.386;16.940;2023-12-14T05:44:48;28.37;;;12.83;;
21890;SDS011;11110;52.386;16.940;2023-12-14T05:47:17;24.17;;;11.27;;
21890;SDS011;11110;52.386;16.940;2023-12-14T05:49:46;23.80;;;11.33;;
21890;SDS011;11110;52.386;16.940;2023-12-14T05:52:22;27.63;;;12.93;;
21890;SDS011;11110;52.386;16.940;2023-12-14T05:54:51;30.93;;;12.90;;
21890;SDS011;11110;52.386;16.940;2023-12-14T05:57:21;28.97;;;12.73;;
21890;SDS011;11110;52.386;16.940;2023-12-14T05:59:51;28.67;;;12.90;;
21890;SDS011;11110;52.386;16.940;2023-12-14T06:02:20;28.23;;;12.93;;
21890;SDS011;11110;52.386;16.940;2023-12-14T06:04:49;25.87;;;11.73;;
21890;SDS011;11110;52.386;16.940;2023-12-14T06:07:17;24.60;;;11.97;;
21890;SDS011;11110;52.386;16.940;2023-12-14T06:09:46;27.87;;;13.00;;
21890;SDS011;11110;52.386;16.940;2023-12-14T06:12:14;24.87;;;11.13;;
21890;SDS011;11110;52.386;16.940;2023-12-14T06:14:44;28.37;;;13.17;;
21890;SDS011;11110;52.386;16.940;2023-12-14T06:17:13;25.67;;;12.77;;
21890;SDS011;11110;52.386;16.940;2023-12-14T06:19:42;26.03;;;12.07;;
21890;SDS011;11110;52.386;16.940;2023-12-14T06:22:10;27.53;;;11.40;;
21890;SDS011;11110;52.386;16.940;2023-12-14T06:24:39;28.37;;;13.07;;
21890;SDS011;11110;52.386;16.940;2023-12-14T06:27:07;31.30;;;13.13;;
21890;SDS011;11110;52.386;16.940;2023-12-14T06:29:36;33.47;;;13.93;;
21890;SDS011;11110;52.386;16.940;2023-12-14T06:32:06;23.73;;;10.57;;
21890;SDS011;11110;52.386;16.940;2023-12-14T06:34:35;27.10;;;11.57;;
21890;SDS011;11110;52.386;16.940;2023-12-14T06:37:03;24.60;;;10.43;;
21890;SDS011;11110;52.386;16.940;2023-12-14T06:39:32;25.47;;;11.33;;
21890;SDS011;11110;52.386;16.940;2023-12-14T06:42:00;23.50;;;11.47;;
21890;SDS011;11110;52.386;16.940;2023-12-14T06:44:29;23.13;;;11.13;;
21890;SDS011;11110;52.386;16.940;2023-12-14T06:47:00;25.77;;;11.30;;
21890;SDS011;11110;52.386;16.940;2023-12-14T06:49:30;24.87;;;11.30;;
21890;SDS011;11110;52.386;16.940;2023-12-14T06:51:59;24.00;;;10.93;;
21890;SDS011;11110;52.386;16.940;2023-12-14T06:54:27;22.53;;;11.30;;
21890;SDS011;11110;52.386;16.940;2023-12-14T06:56:56;22.73;;;10.67;;
21890;SDS011;11110;52.386;16.940;2023-12-14T06:59:26;22.00;;;10.30;;
21890;SDS011;11110;52.386;16.940;2023-12-14T07:01:55;24.70;;;11.30;;
21890;SDS011;11110;52.386;16.940;2023-12-14T07:04:23;19.73;;;9.83;;
21890;SDS011;11110;52.386;16.940;2023-12-14T07:06:53;24.97;;;10.90;;
21890;SDS011;11110;52.386;16.940;2023-12-14T07:09:22;23.97;;;10.80;;
21890;SDS011;11110;52.386;16.940;2023-12-14T07:11:51;26.07;;;11.27;;
21890;SDS011;11110;52.386;16.940;2023-12-14T07:14:20;23.10;;;10.57;;
21890;SDS011;11110;52.386;16.940;2023-12-14T07:16:52;24.10;;;11.03;;
21890;SDS011;11110;52.386;16.940;2023-12-14T07:19:21;24.20;;;10.03;;
21890;SDS011;11110;52.386;16.940;2023-12-14T07:21:49;25.83;;;11.27;;
21890;SDS011;11110;52.386;16.940;2023-12-14T07:24:19;25.37;;;11.03;;
21890;SDS011;11110;52.386;16.940;2023-12-14T07:26:47;25.43;;;10.63;;
21890;SDS011;11110;52.386;16.940;2023-12-14T07:29:17;20.00;;;10.10;;
21890;SDS011;11110;52.386;16.940;2023-12-14T07:31:46;26.20;;;11.53;;
21890;SDS011;11110;52.386;16.940;2023-12-14T07:34:15;26.90;;;11.23;;
21890;SDS011;11110;52.386;16.940;2023-12-14T07:36:44;23.13;;;10.63;;
21890;SDS011;11110;52.386;16.940;2023-12-14T07:39:12;26.83;;;12.47;;
21890;SDS011;11110;52.386;16.940;2023-12-14T07:41:42;23.50;;;11.70;;
21890;SDS011;11110;52.386;16.940;2023-12-14T07:44:11;21.77;;;10.67;;
21890;SDS011;11110;52.386;16.940;2023-12-14T07:46:39;27.27;;;12.27;;
21890;SDS011;11110;52.386;16.940;2023-12-14T07:49:10;24.77;;;12.10;;
21890;SDS011;11110;52.386;16.940;2023-12-14T07:51:38;25.00;;;11.03;;
21890;SDS011;11110;52.386;16.940;2023-12-14T07:54:07;26.13;;;11.60;;
21890;SDS011;11110;52.386;16.940;2023-12-14T07:56:36;26.50;;;12.50;;
21890;SDS011;11110;52.386;16.940;2023-12-14T07:59:06;23.13;;;11.63;;
21890;SDS011;11110;52.386;16.940;2023-12-14T08:01:36;26.40;;;11.73;;
21890;SDS011;11110;52.386;16.940;2023-12-14T08:04:04;23.47;;;12.23;;
21890;SDS011;11110;52.386;16.940;2023-12-14T08:06:33;30.07;;;12.33;;
21890;SDS011;11110;52.386;16.940;2023-12-14T08:09:02;26.27;;;12.13;;
21890;SDS011;11110;52.386;16.940;2023-12-14T08:11:30;24.93;;;11.37;;
21890;SDS011;11110;52.386;16.940;2023-12-14T08:13:59;22.23;;;11.40;;
21890;SDS011;11110;52.386;16.940;2023-12-14T08:16:29;30.03;;;12.53;;
21890;SDS011;11110;52.386;16.940;2023-12-14T08:18:58;27.90;;;11.47;;
21890;SDS011;11110;52.386;16.940;2023-12-14T08:21:28;26.37;;;11.93;;
21890;SDS011;11110;52.386;16.940;2023-12-14T08:23:57;25.23;;;11.90;;
21890;SDS011;11110;52.386;16.940;2023-12-14T08:26:25;25.20;;;10.93;;
21890;SDS011;11110;52.386;16.940;2023-12-14T08:28:54;24.83;;;12.03;;
21890;SDS011;11110;52.386;16.940;2023-12-14T08:31:22;24.00;;;11.77;;
21890;SDS011;11110;52.386;16.940;2023-12-14T08:33:52;29.90;;;11.70;;
21890;SDS011;11110;52.386;16.940;2023-12-14T08:36:21;26.43;;;12.27;;
21890;SDS011;11110;52.386;16.940;2023-12-14T08:38:49;27.83;;;12.17;;
21890;SDS011;11110;52.386;16.940;2023-12-14T08:41:18;22.03;;;10.43;;
21890;SDS011;11110;52.386;16.940;2023-12-14T08:43:46;24.03;;;11.87;;
21890;SDS011;11110;52.386;16.940;2023-12-14T08:46:15;29.13;;;12.17;;
21890;SDS011;11110;52.386;16.940;2023-12-14T08:48:44;26.73;;;11.77;;
21890;SDS011;11110;52.386;16.940;2023-12-14T08:51:13;26.53;;;11.83;;
21890;SDS011;11110;52.386;16.940;2023-12-14T08:53:42;26.67;;;11.80;;
21890;SDS011;11110;52.386;16.940;2023-12-14T08:56:11;22.67;;;11.07;;
21890;SDS011;11110;52.386;16.940;2023-12-14T08:58:40;25.40;;;10.77;;
21890;SDS011;11110;52.386;16.940;2023-12-14T09:01:08;27.83;;;12.00;;
21890;SDS011;11110;52.386;16.940;2023-12-14T09:03:37;27.67;;;11.97;;
21890;SDS011;11110;52.386;16.940;2023-12-14T09:06:06;25.60;;;10.67;;
21890;SDS011;11110;52.386;16.940;2023-12-14T09:08:36;25.50;;;11.80;;
21890;SDS011;11110;52.386;16.940;2023-12-14T09:11:06;28.93;;;12.70;;
21890;SDS011;11110;52.386;16.940;2023-12-14T09:13:35;26.30;;;12.13;;
21890;SDS011;11110;52.386;16.940;2023-12-14T09:16:04;22.73;;;11.20;;
21890;SDS011;11110;52.386;16.940;2023-12-14T09:18:33;27.80;;;13.13;;
21890;SDS011;11110;52.386;16.940;2023-12-14T09:21:02;26.07;;;12.03;;
21890;SDS011;11110;52.386;16.940;2023-12-14T09:23:31;24.30;;;11.43;;
21890;SDS011;11110;52.386;16.940;2023-12-14T09:26:01;28.30;;;13.10;;
21890;SDS011;11110;52.386;16.940;2023-12-14T09:28:30;24.07;;;11.27;;
21890;SDS011;11110;52.386;16.940;2023-12-14T09:30:59;21.67;;;10.73;;
21890;SDS011;11110;52.386;16.940;2023-12-14T09:33:30;23.23;;;10.30;;
21890;SDS011;11110;52.386;16.940;2023-12-14T09:35:59;27.70;;;11.23;;
21890;SDS011;11110;52.386;16.940;2023-12-14T09:38:27;25.70;;;11.60;;
21890;SDS011;11110;52.386;16.940;2023-12-14T09:40:56;25.13;;;10.97;;
21890;SDS011;11110;52.386;16.940;2023-12-14T09:43:26;21.80;;;10.03;;
21890;SDS011;11110;52.386;16.940;2023-12-14T09:45:54;22.47;;;10.77;;
21890;SDS011;11110;52.386;16.940;2023-12-14T09:48:23;27.10;;;10.80;;
21890;SDS011;11110;52.386;16.940;2023-12-14T09:50:52;19.40;;;9.17;;
21890;SDS011;11110;52.386;16.940;2023-12-14T09:53:21;22.33;;;10.00;;
21890;SDS011;11110;52.386;16.940;2023-12-14T09:55:49;23.77;;;10.57;;
21890;SDS011;11110;52.386;16.940;2023-12-14T09:58:18;17.23;;;8.83;;
21890;SDS011;11110;52.386;16.940;2023-12-14T10:00:48;22.20;;;10.50;;
21890;SDS011;11110;52.386;16.940;2023-12-14T10:03:17;22.07;;;9.97;;
21890;SDS011;11110;52.386;16.940;2023-12-14T10:05:48;19.53;;;9.50;;
21890;SDS011;11110;52.386;16.940;2023-12-14T10:08:20;20.97;;;9.43;;
21890;SDS011;11110;52.386;16.940;2023-12-14T10:10:50;18.77;;;9.57;;
21890;SDS011;11110;52.386;16.940;2023-12-14T10:13:21;19.00;;;9.67;;
21890;SDS011;11110;52.386;16.940;2023-12-14T10:15:52;22.23;;;10.67;;
21890;SDS011;11110;52.386;16.940;2023-12-14T10:18:21;22.43;;;10.37;;
21890;SDS011;11110;52.386;16.940;2023-12-14T10:20:51;15.87;;;9.37;;
21890;SDS011;11110;52.386;16.940;2023-12-14T10:23:20;21.30;;;10.23;;
21890;SDS011;11110;52.386;16.940;2023-12-14T10:25:49;18.63;;;9.67;;
21890;SDS011;11110;52.386;16.940;2023-12-14T10:28:17;20.53;;;9.93;;
21890;SDS011;11110;52.386;16.940;2023-12-14T10:30:46;23.63;;;10.47;;
21890;SDS011;11110;52.386;16.940;2023-12-14T10:33:16;22.37;;;10.43;;
21890;SDS011;11110;52.386;16.940;2023-12-14T10:35:44;22.63;;;10.67;;
21890;SDS011;11110;52.386;16.940;2023-12-14T10:38:14;21.70;;;9.73;;
21890;SDS011;11110;52.386;16.940;2023-12-14T10:40:45;23.57;;;10.70;;
21890;SDS011;11110;52.386;16.940;2023-12-14T10:43:14;25.37;;;11.30;;
21890;SDS011;11110;52.386;16.940;2023-12-14T10:46:04;19.40;;;10.07;;
21890;SDS011;11110;52.386;16.940;2023-12-14T10:48:36;23.03;;;10.33;;
21890;SDS011;11110;52.386;16.940;2023-12-14T10:51:08;22.57;;;10.20;;
21890;SDS011;11110;52.386;16.940;2023-12-14T10:53:38;24.30;;;11.07;;
21890;SDS011;11110;52.386;16.940;2023-12-14T10:56:07;22.77;;;10.47;;
21890;SDS011;11110;52.386;16.940;2023-12-14T10:58:46;26.57;;;11.33;;
21890;SDS011;11110;52.386;16.940;2023-12-14T11:01:19;25.20;;;10.97;;
21890;SDS011;11110;52.386;16.940;2023-12-14T11:03:53;28.10;;;11.87;;
21890;SDS011;11110;52.386;16.940;2023-12-14T11:06:27;24.47;;;11.17;;
21890;SDS011;11110;52.386;16.940;2023-12-14T11:08:59;24.73;;;11.03;;
21890;SDS011;11110;52.386;16.940;2023-12-14T11:11:39;29.07;;;11.33;;
21890;SDS011;11110;52.386;16.940;2023-12-14T11:14:11;25.50;;;11.47;;
21890;SDS011;11110;52.386;16.940;2023-12-14T11:16:40;20.63;;;9.13;;
21890;SDS011;11110;52.386;16.940;2023-12-14T11:19:30;21.20;;;9.43;;
21890;SDS011;11110;52.386;16.940;2023-12-14T11:22:09;17.90;;;8.53;;
21890;SDS011;11110;52.386;16.940;2023-12-14T11:24:41;17.77;;;8.43;;
21890;SDS011;11110;52.386;16.940;2023-12-14T11:27:11;17.50;;;9.20;;
21890;SDS011;11110;52.386;16.940;2023-12-14T11:29:40;18.43;;;9.20;;
21890;SDS011;11110;52.386;16.940;2023-12-14T11:32:10;19.30;;;8.70;;
21890;SDS011;11110;52.386;16.940;2023-12-14T11:34:40;17.87;;;8.70;;
21890;SDS011;11110;52.386;16.940;2023-12-14T11:37:09;20.93;;;9.13;;
21890;SDS011;11110;52.386;16.940;2023-12-14T11:39:38;20.93;;;9.70;;
21890;SDS011;11110;52.386;16.940;2023-12-14T11:42:07;20.57;;;10.30;;
21890;SDS011;11110;52.386;16.940;2023-12-14T11:44:37;19.80;;;8.83;;
21890;SDS011;11110;52.386;16.940;2023-12-14T11:47:08;20.50;;;9.17;;
21890;SDS011;11110;52.386;16.940;2023-12-14T11:49:37;20.60;;;9.07;;
21890;SDS011;11110;52.386;16.940;2023-12-14T11:52:07;22.90;;;10.17;;
21890;SDS011;11110;52.386;16.940;2023-12-14T11:54:36;17.50;;;8.83;;
21890;SDS011;11110;52.386;16.940;2023-12-14T11:57:05;23.47;;;10.23;;
21890;SDS011;11110;52.386;16.940;2023-12-14T11:59:36;19.30;;;9.90;;
21890;SDS011;11110;52.386;16.940;2023-12-14T12:02:05;18.87;;;8.90;;
21890;SDS011;11110;52.386;16.940;2023-12-14T12:04:35;18.70;;;9.10;;
21890;SDS011;11110;52.386;16.940;2023-12-14T12:07:04;19.30;;;9.20;;
21890;SDS011;11110;52.386;16.940;2023-12-14T12:09:38;18.50;;;9.13;;
21890;SDS011;11110;52.386;16.940;2023-12-14T12:12:09;16.93;;;8.87;;
21890;SDS011;11110;52.386;16.940;2023-12-14T12:14:39;16.03;;;8.00;;
21890;SDS011;11110;52.386;16.940;2023-12-14T12:17:09;23.43;;;10.27;;
21890;SDS011;11110;52.386;16.940;2023-12-14T12:19:38;18.23;;;9.23;;
21890;SDS011;11110;52.386;16.940;2023-12-14T12:22:09;21.00;;;9.50;;
21890;SDS011;11110;52.386;16.940;2023-12-14T12:24:39;18.97;;;8.80;;
21890;SDS011;11110;52.386;16.940;2023-12-14T12:27:08;15.30;;;8.37;;
21890;SDS011;11110;52.386;16.940;2023-12-14T12:29:37;17.30;;;8.57;;
21890;SDS011;11110;52.386;16.940;2023-12-14T12:32:05;16.93;;;8.40;;
21890;SDS011;11110;52.386;16.940;2023-12-14T12:34:34;20.53;;;9.50;;
21890;SDS011;11110;52.386;16.940;2023-12-14T12:37:02;22.37;;;9.17;;
21890;SDS011;11110;52.386;16.940;2023-12-14T12:39:32;19.10;;;8.73;;
21890;SDS011;11110;52.386;16.940;2023-12-14T12:42:02;19.53;;;8.40;;
21890;SDS011;11110;52.386;16.940;2023-12-14T12:44:31;17.80;;;7.80;;
21890;SDS011;11110;52.386;16.940;2023-12-14T12:46:59;21.07;;;9.33;;
21890;SDS011;11110;52.386;16.940;2023-12-14T12:49:37;21.80;;;8.63;;
21890;SDS011;11110;52.386;16.940;2023-12-14T12:52:06;18.53;;;8.77;;
21890;SDS011;11110;52.386;16.940;2023-12-14T12:54:35;19.90;;;8.47;;
21890;SDS011;11110;52.386;16.940;2023-12-14T12:57:05;22.93;;;9.07;;
21890;SDS011;11110;52.386;16.940;2023-12-14T12:59:33;21.50;;;9.33;;
21890;SDS011;11110;52.386;16.940;2023-12-14T13:02:02;20.50;;;8.63;;
21890;SDS011;11110;52.386;16.940;2023-12-14T13:04:31;19.80;;;8.57;;
21890;SDS011;11110;52.386;16.940;2023-12-14T13:06:59;19.93;;;8.20;;
21890;SDS011;11110;52.386;16.940;2023-12-14T13:09:31;17.43;;;8.20;;
21890;SDS011;11110;52.386;16.940;2023-12-14T13:11:59;22.67;;;9.17;;
21890;SDS011;11110;52.386;16.940;2023-12-14T13:14:29;20.80;;;8.53;;
21890;SDS011;11110;52.386;16.940;2023-12-14T13:16:59;23.50;;;9.07;;
21890;SDS011;11110;52.386;16.940;2023-12-14T13:19:28;21.23;;;8.57;;
21890;SDS011;11110;52.386;16.940;2023-12-14T13:21:56;18.17;;;8.13;;
21890;SDS011;11110;52.386;16.940;2023-12-14T13:24:26;21.97;;;9.13;;
21890;SDS011;11110;52.386;16.940;2023-12-14T13:26:56;19.27;;;8.23;;
21890;SDS011;11110;52.386;16.940;2023-12-14T13:29:26;20.77;;;9.23;;
21890;SDS011;11110;52.386;16.940;2023-12-14T13:31:55;20.60;;;8.53;;
21890;SDS011;11110;52.386;16.940;2023-12-14T13:34:24;20.33;;;8.03;;
21890;SDS011;11110;52.386;16.940;2023-12-14T13:36:52;20.90;;;8.87;;
21890;SDS011;11110;52.386;16.940;2023-12-14T13:39:21;18.57;;;7.63;;
21890;SDS011;11110;52.386;16.940;2023-12-14T13:41:50;18.17;;;8.07;;
21890;SDS011;11110;52.386;16.940;2023-12-14T13:44:18;19.77;;;8.57;;
21890;SDS011;11110;52.386;16.940;2023-12-14T13:46:48;13.33;;;6.80;;
21890;SDS011;11110;52.386;16.940;2023-12-14T13:49:18;13.93;;;6.83;;
21890;SDS011;11110;52.386;16.940;2023-12-14T13:51:46;17.80;;;7.67;;
21890;SDS011;11110;52.386;16.940;2023-12-14T13:54:15;14.87;;;7.33;;
21890;SDS011;11110;52.386;16.940;2023-12-14T13:56:43;21.63;;;8.27;;
21890;SDS011;11110;52.386;16.940;2023-12-14T13:59:12;21.23;;;8.33;;
21890;SDS011;11110;52.386;16.940;2023-12-14T14:01:40;19.97;;;7.67;;
21890;SDS011;11110;52.386;16.940;2023-12-14T14:04:09;18.83;;;7.87;;
21890;SDS011;11110;52.386;16.940;2023-12-14T14:06:39;21.07;;;8.50;;
21890;SDS011;11110;52.386;16.940;2023-12-14T14:09:07;19.87;;;8.00;;
21890;SDS011;11110;52.386;16.940;2023-12-14T14:11:37;16.63;;;7.13;;
21890;SDS011;11110;52.386;16.940;2023-12-14T14:14:08;18.77;;;8.47;;
21890;SDS011;11110;52.386;16.940;2023-12-14T14:16:36;17.07;;;7.33;;
21890;SDS011;11110;52.386;16.940;2023-12-14T14:19:05;17.70;;;8.00;;
21890;SDS011;11110;52.386;16.940;2023-12-14T14:21:33;16.83;;;7.67;;
21890;SDS011;11110;52.386;16.940;2023-12-14T14:24:04;17.27;;;7.97;;